Weather observations for the past three days for
Greenville Spartanburg International Airport
Metric (Imperial)
Date Time (edt) Wind (kph) Vis. (km) Weather Sky Cond. Temperature (ºC) Relative Humidity Wind Chill (°C) Heat Index (°C) Pressure Precipitation (cm)
Air Dwpt 6 hour altimeter (cm) sea level (mb) 1 hr 3 hr 6 hr
Max. Min.
04 21:53 S 6 16.09 Fair CLR 17.2 5.6 47% 76.17 1014.8
04 20:53 S 7 16.09 Fair CLR 18.3 5.6 43% 76.12 1014.3
04 19:53 S 15 16.09 Fair CLR 21.1 5 26.1 21.1 35% 76.1 1014.0
04 18:53 S 19 G 30 16.09 Fair CLR 23.9 5 29% 25 76.07 1013.6
04 17:53 S 24 G 37 16.09 Fair CLR 25 3.3 24% 25 76.07 1013.6
04 16:53 S 22 G 30 16.09 Fair CLR 25.6 4.4 26% 25 76.07 1013.6
04 15:53 S 13 16.09 Fair CLR 25.6 3.9 25% 25 76.12 1014.1
04 14:53 Calm 16.09 Fair CLR 24.4 2.8 25% 25 76.17 1015.0
04 13:53 SE 11 16.09 Fair CLR 23.3 2.2 23.9 8.9 25% 76.23 1015.6
04 12:53 SW 13 16.09 Fair CLR 22.2 3.9 30% 76.28 1016.2
04 11:53 Vrbl 6 16.09 Fair CLR 20.6 1.7 29% 76.33 1017.0
04 10:53 Calm 16.09 Fair CLR 18.9 5.6 42% 76.35 1017.3
04 09:53 Calm 16.09 Fair CLR 16.7 6.7 52% 76.35 1017.3
04 08:53 SW 6 16.09 Fair CLR 14.4 6.7 60% 76.33 1016.9
04 07:53 Calm 16.09 Fair CLR 8.9 6.1 9.4 5.6 83% 76.3 1016.8
04 06:53 Calm 16.09 Fair CLR 5.6 3.9 89% 76.3 1016.8
04 05:53 SW 7 16.09 Fair CLR 6.7 5 89% 6 76.3 1016.7
04 04:53 SW 6 16.09 Fair CLR 7.8 3.9 77% 76.3 1016.6
04 03:53 Calm 16.09 Fair CLR 8.9 4.4 74% 76.25 1016.2
04 02:53 Calm 16.09 Fair CLR 8.3 5 80% 76.28 1016.5
04 01:53 SW 9 16.09 Fair CLR 8.3 5.6 17.2 8.3 83% 7 76.3 1016.8
04 00:53 S 9 16.09 Fair CLR 11.1 5.6 69% 76.28 1016.4
03 23:53 S 9 16.09 Fair CLR 11.1 6.1 72% 76.3 1016.9
03 22:53 S 9 16.09 Fair CLR 13.3 6.1 62% 76.3 1016.8
03 21:53 S 11 16.09 Fair CLR 15 5.6 54% 76.28 1016.3
03 20:53 S 9 16.09 Fair CLR 15 4.4 49% 76.25 1015.9
03 19:53 SW 13 16.09 Fair CLR 17.2 2.8 21.1 17.2 38% 76.2 1015.5
03 18:53 S 11 16.09 Fair CLR 19.4 3.3 35% 76.23 1015.6
03 17:53 SW 15 16.09 Fair CLR 20 2.8 32% 76.23 1015.9
03 16:53 SW 17 G 28 16.09 Fair CLR 20 2.8 32% 76.25 1016.2
03 15:53 SW 13 G 30 16.09 Fair CLR 20 2.8 32% 76.33 1017.2
03 14:53 SW 20 G 31 16.09 Fair CLR 19.4 2.2 32% 76.38 1017.9
03 13:53 Vrbl 6 16.09 Fair CLR 17.8 1.1 18.3 8.9 33% 76.43 1018.5
03 12:53 NW 17 16.09 Fair CLR 17.2 1.1 34% 76.5 1019.4
03 11:53 SW 13 16.09 Fair CLR 16.1 2.2 39% 76.56 1020.2
03 10:53 Calm 16.09 Fair CLR 14.4 2.2 44% 76.56 1020.4
03 09:53 Vrbl 6 16.09 Fair CLR 13.3 2.2 47% 76.56 1020.0
03 08:53 N 9 16.09 Fair CLR 11.7 2.8 55% 76.53 1020.1
03 07:53 N 7 16.09 Fair CLR 8.9 2.8 10.6 5.6 66% 8 76.5 1019.6
03 06:53 N 6 16.09 Fair CLR 6.7 2.2 73% 76.45 1019.0
03 05:53 N 6 16.09 Fair CLR 6.1 2.2 76% 76.38 1017.9
03 04:53 NE 6 16.09 Fair CLR 6.7 1.1 68% 76.35 1017.5
03 03:53 Calm 16.09 Fair CLR 7.8 1.7 66% 76.33 1017.1
03 02:53 N 13 16.09 Fair CLR 9.4 1.1 56% 8 76.25 1016.2
03 01:53 N 11 16.09 Fair CLR 10.6 0.6 16.1 8.3 50% 76.25 1016.2
03 00:53 N 11 16.09 Fair CLR 10.6 1.1 52% 76.25 1016.3
02 23:53 NW 6 16.09 Fair CLR 8.3 2.2 66% 76.23 1016.0
02 22:53 Calm 16.09 Fair CLR 11.1 0.6 49% 76.2 1015.4
02 21:53 N 9 16.09 Fair CLR 12.8 -0.6 40% 76.12 1014.5
02 20:53 N 11 16.09 Fair CLR 13.3 0 40% 76.02 1013.1
02 19:53 N 15 16.09 Overcast OVC110 16.1 0 18.3 15.6 34% 75.97 1012.3
02 18:53 NW 7 16.09 Mostly Cloudy FEW085 BKN110 16.7 3.3 41% 75.9 1011.3
02 17:53 SW 7 16.09 Mostly Cloudy BKN080 17.8 2.8 37% 75.87 1011.1
02 16:53 NW 6 16.09 Overcast OVC070 16.7 3.3 41% 75.87 1011.1
02 15:53 Calm 16.09 Mostly Cloudy BKN060 17.8 5 43% 75.9 1011.1
02 14:53 E 7 16.09 Mostly Cloudy FEW035 BKN055 17.8 7.2 50% 75.92 1011.6
02 13:53 NE 11 16.09 Overcast SCT029 SCT036 OVC050 16.1 8.3 16.1 12.8 60% 75.97 1012.3
02 12:53 NE 11 16.09 Overcast SCT027 OVC049 14.4 8.3 67% 76.02 1012.9
02 11:53 E 13 16.09 Overcast OVC045 13.9 8.3 69% 76.05 1013.4
02 10:53 NE 13 16.09 Overcast OVC045 13.9 8.3 69% 76.05 1013.2
02 09:53 NE 15 16.09 Partly Cloudy FEW031 SCT045 13.9 9.4 74% 76.02 1012.9
02 08:53 N 22 16.09 Mostly Cloudy BKN110 13.3 9.4 77% 75.97 1012.2
02 07:53 N 9 16.09 Overcast OVC110 13.3 9.4 14.4 12.2 77% 75.95 1012.1 0.03
02 06:53 N 7 16.09 Overcast FEW065 OVC100 12.8 10 83% 75.92 1011.4
02 05:53 Calm 16.09 Mostly Cloudy BKN120 12.8 11.1 90% 75.87 1010.9
02 04:53 Calm 16.09 Light Rain BKN070 OVC090 13.3 12.2 93% 75.95 1011.7 0.03 0.03
02 03:53 SW 7 16.09 Light Rain OVC075 13.9 11.1 83% 75.95 1011.7
02 02:53 Calm 16.09 Overcast OVC110 13.9 11.1 83% 75.92 1011.4
02 01:53 Calm 16.09 Overcast OVC120 13.9 11.7 17.2 13.9 87% 75.9 1011.4
02 00:53 SW 6 16.09 Fair CLR 14.4 11.1 81% 75.95 1012.0
01 23:53 SW 6 16.09 Fair CLR 14.4 11.1 81% 76 1012.4
01 22:53 Calm 16.09 Fair CLR 15 11.1 78% 76 1012.6
Date Time (edt) Wind (kph) Vis. (km) Weather Sky Cond. Air Dwpt Max. Min. Relative Humidity Wind Chill (°C) Heat Index (°C) altimeter (cm) sea level (mb) 1 hr 3 hr 6 hr
6 hour
Temperature (ºC) Pressure Precipitation (cm)